Windhoek, Namibia
Current Conditions -  °F | °C
As of 7:00 PM on Monday 20 Oct 2014 (Local Time) from FYWW Reporting Station
Clear Clear  
Wind Chill: 77°   Ceiling: Unl
Heat Index: 77°   Visibility: 6mi
Dew Point: 25°   Wind: 10mph
Humidity: 14%   Direction: 230°SW
Pressure: 30.18"   Gusts: NA
Location:  22.56°S, 17.09°E
Report Text: FYWW 201800Z 23009KT CAVOK 25/M04 Q1022
Loading
Personal Weather Stations






























Interactive Weather Map
Tropical Storm Tracking
New forecast layout! Learn more

10-Day Weather Forecast

Advertisements
Track Severe Weather on mobile